sensor_id;sensor_type;location;lat;lon;timestamp;temperature;humidity
15286;DHT22;7744;52.172;10.668;2023-03-13T00:00:54;7.20;99.90
15286;DHT22;7744;52.172;10.668;2023-03-13T00:03:21;7.30;99.90
15286;DHT22;7744;52.172;10.668;2023-03-13T00:05:46;7.40;99.90
15286;DHT22;7744;52.172;10.668;2023-03-13T00:08:12;7.40;99.90
15286;DHT22;7744;52.172;10.668;2023-03-13T00:10:39;7.50;99.90
15286;DHT22;7744;52.172;10.668;2023-03-13T00:13:05;7.60;99.90
15286;DHT22;7744;52.172;10.668;2023-03-13T00:15:31;7.50;99.90
15286;DHT22;7744;52.172;10.668;2023-03-13T00:17:56;7.60;99.90
15286;DHT22;7744;52.172;10.668;2023-03-13T00:20:22;7.60;99.90
15286;DHT22;7744;52.172;10.668;2023-03-13T00:22:47;7.50;99.90
15286;DHT22;7744;52.172;10.668;2023-03-13T00:25:13;7.50;99.90
15286;DHT22;7744;52.172;10.668;2023-03-13T00:27:39;7.50;99.90
15286;DHT22;7744;52.172;10.668;2023-03-13T00:30:05;7.50;99.90
15286;DHT22;7744;52.172;10.668;2023-03-13T00:32:30;7.50;99.90
15286;DHT22;7744;52.172;10.668;2023-03-13T00:34:56;7.50;99.90
15286;DHT22;7744;52.172;10.668;2023-03-13T00:37:21;7.50;99.90
15286;DHT22;7744;52.172;10.668;2023-03-13T00:39:47;7.50;99.90
15286;DHT22;7744;52.172;10.668;2023-03-13T00:42:13;7.50;99.90
15286;DHT22;7744;52.172;10.668;2023-03-13T00:44:38;7.50;99.90
15286;DHT22;7744;52.172;10.668;2023-03-13T00:47:04;8.00;99.90
15286;DHT22;7744;52.172;10.668;2023-03-13T00:49:31;7.50;99.90
15286;DHT22;7744;52.172;10.668;2023-03-13T00:51:57;7.60;99.90
15286;DHT22;7744;52.172;10.668;2023-03-13T00:54:22;7.60;99.90
15286;DHT22;7744;52.172;10.668;2023-03-13T00:56:48;7.60;99.90
15286;DHT22;7744;52.172;10.668;2023-03-13T00:59:14;7.50;99.90
15286;DHT22;7744;52.172;10.668;2023-03-13T01:01:40;7.50;99.90
15286;DHT22;7744;52.172;10.668;2023-03-13T01:04:08;7.40;99.90
15286;DHT22;7744;52.172;10.668;2023-03-13T01:06:35;7.30;99.90
15286;DHT22;7744;52.172;10.668;2023-03-13T01:09:03;7.40;99.90
15286;DHT22;7744;52.172;10.668;2023-03-13T01:11:31;7.40;99.90
15286;DHT22;7744;52.172;10.668;2023-03-13T01:14:01;7.50;99.90
15286;DHT22;7744;52.172;10.668;2023-03-13T01:16:29;7.50;99.90
15286;DHT22;7744;52.172;10.668;2023-03-13T01:18:58;7.40;99.90
15286;DHT22;7744;52.172;10.668;2023-03-13T01:21:25;7.40;99.90
15286;DHT22;7744;52.172;10.668;2023-03-13T01:23:52;7.40;99.90
15286;DHT22;7744;52.172;10.668;2023-03-13T01:26:17;7.40;99.90
15286;DHT22;7744;52.172;10.668;2023-03-13T01:28:43;7.40;99.90
15286;DHT22;7744;52.172;10.668;2023-03-13T01:33:47;7.30;99.90
15286;DHT22;7744;52.172;10.668;2023-03-13T01:36:13;7.30;99.90
15286;DHT22;7744;52.172;10.668;2023-03-13T01:38:39;7.40;99.90
15286;DHT22;7744;52.172;10.668;2023-03-13T01:41:06;7.50;99.90
15286;DHT22;7744;52.172;10.668;2023-03-13T01:43:34;7.50;99.90
15286;DHT22;7744;52.172;10.668;2023-03-13T01:46:03;7.60;99.90
15286;DHT22;7744;52.172;10.668;2023-03-13T01:53:49;7.50;99.90
15286;DHT22;7744;52.172;10.668;2023-03-13T01:56:27;7.60;99.90
15286;DHT22;7744;52.172;10.668;2023-03-13T01:58:54;7.60;99.90
15286;DHT22;7744;52.172;10.668;2023-03-13T02:01:22;7.50;99.90
15286;DHT22;7744;52.172;10.668;2023-03-13T02:03:48;7.60;99.90
15286;DHT22;7744;52.172;10.668;2023-03-13T02:06:15;7.50;99.90
15286;DHT22;7744;52.172;10.668;2023-03-13T02:08:46;7.60;99.90
15286;DHT22;7744;52.172;10.668;2023-03-13T02:11:28;7.70;99.90
15286;DHT22;7744;52.172;10.668;2023-03-13T02:13:56;7.70;94.00
15286;DHT22;7744;52.172;10.668;2023-03-13T02:16:23;7.70;99.90
15286;DHT22;7744;52.172;10.668;2023-03-13T02:18:49;7.70;99.90
15286;DHT22;7744;52.172;10.668;2023-03-13T02:21:54;7.60;99.90
15286;DHT22;7744;52.172;10.668;2023-03-13T02:27:18;7.50;99.90
15286;DHT22;7744;52.172;10.668;2023-03-13T02:29:43;7.60;99.90
15286;DHT22;7744;52.172;10.668;2023-03-13T02:32:10;7.50;99.90
15286;DHT22;7744;52.172;10.668;2023-03-13T02:34:38;7.40;99.90
15286;DHT22;7744;52.172;10.668;2023-03-13T02:37:06;7.50;99.90
15286;DHT22;7744;52.172;10.668;2023-03-13T02:39:35;7.50;99.90
15286;DHT22;7744;52.172;10.668;2023-03-13T02:42:03;7.50;99.90
15286;DHT22;7744;52.172;10.668;2023-03-13T02:44:29;7.60;99.90
15286;DHT22;7744;52.172;10.668;2023-03-13T02:46:54;7.60;99.90
15286;DHT22;7744;52.172;10.668;2023-03-13T02:49:26;7.50;99.90
15286;DHT22;7744;52.172;10.668;2023-03-13T02:51:53;7.40;99.90
15286;DHT22;7744;52.172;10.668;2023-03-13T02:54:27;7.40;99.90
15286;DHT22;7744;52.172;10.668;2023-03-13T02:56:56;7.50;99.90
15286;DHT22;7744;52.172;10.668;2023-03-13T02:59:23;7.50;99.90
15286;DHT22;7744;52.172;10.668;2023-03-13T03:01:49;7.50;99.90
15286;DHT22;7744;52.172;10.668;2023-03-13T03:04:22;7.50;99.90
15286;DHT22;7744;52.172;10.668;2023-03-13T03:06:48;7.60;99.90
15286;DHT22;7744;52.172;10.668;2023-03-13T03:09:16;7.60;99.90
15286;DHT22;7744;52.172;10.668;2023-03-13T03:11:41;7.50;99.90
15286;DHT22;7744;52.172;10.668;2023-03-13T03:14:08;7.50;99.90
15286;DHT22;7744;52.172;10.668;2023-03-13T03:16:33;7.40;99.90
15286;DHT22;7744;52.172;10.668;2023-03-13T03:18:59;7.40;99.90
15286;DHT22;7744;52.172;10.668;2023-03-13T03:21:24;7.40;1.00
15286;DHT22;7744;52.172;10.668;2023-03-13T03:23:50;7.40;99.90
15286;DHT22;7744;52.172;10.668;2023-03-13T03:26:16;7.40;99.90
15286;DHT22;7744;52.172;10.668;2023-03-13T03:28:42;7.50;1.00
15286;DHT22;7744;52.172;10.668;2023-03-13T03:31:09;7.40;99.90
15286;DHT22;7744;52.172;10.668;2023-03-13T03:33:37;7.50;1.00
15286;DHT22;7744;52.172;10.668;2023-03-13T03:36:05;7.50;1.00
15286;DHT22;7744;52.172;10.668;2023-03-13T03:38:30;7.40;99.90
15286;DHT22;7744;52.172;10.668;2023-03-13T03:40:56;7.50;1.00
15286;DHT22;7744;52.172;10.668;2023-03-13T03:43:22;7.50;1.00
15286;DHT22;7744;52.172;10.668;2023-03-13T03:45:47;7.60;1.00
15286;DHT22;7744;52.172;10.668;2023-03-13T03:48:13;7.60;1.00
15286;DHT22;7744;52.172;10.668;2023-03-13T03:50:38;7.60;1.00
15286;DHT22;7744;52.172;10.668;2023-03-13T03:53:04;7.60;1.00
15286;DHT22;7744;52.172;10.668;2023-03-13T03:55:29;7.50;1.00
15286;DHT22;7744;52.172;10.668;2023-03-13T03:57:55;7.60;1.00
15286;DHT22;7744;52.172;10.668;2023-03-13T04:00:21;7.60;1.00
15286;DHT22;7744;52.172;10.668;2023-03-13T04:02:47;7.60;1.00
15286;DHT22;7744;52.172;10.668;2023-03-13T04:05:12;7.50;1.00
15286;DHT22;7744;52.172;10.668;2023-03-13T04:07:38;7.50;1.00
15286;DHT22;7744;52.172;10.668;2023-03-13T04:10:04;7.40;1.00
15286;DHT22;7744;52.172;10.668;2023-03-13T04:12:29;7.30;1.00
15286;DHT22;7744;52.172;10.668;2023-03-13T04:14:55;7.40;1.00
15286;DHT22;7744;52.172;10.668;2023-03-13T04:17:20;7.40;1.00
15286;DHT22;7744;52.172;10.668;2023-03-13T04:19:46;7.40;1.00
15286;DHT22;7744;52.172;10.668;2023-03-13T04:22:11;7.30;1.00
15286;DHT22;7744;52.172;10.668;2023-03-13T04:24:37;7.20;1.00
15286;DHT22;7744;52.172;10.668;2023-03-13T04:27:03;7.30;99.90
15286;DHT22;7744;52.172;10.668;2023-03-13T04:29:33;7.40;99.90
15286;DHT22;7744;52.172;10.668;2023-03-13T04:32:00;7.30;99.90
15286;DHT22;7744;52.172;10.668;2023-03-13T04:34:25;7.20;1.00
15286;DHT22;7744;52.172;10.668;2023-03-13T04:36:51;7.20;1.00
15286;DHT22;7744;52.172;10.668;2023-03-13T04:39:17;7.20;99.90
15286;DHT22;7744;52.172;10.668;2023-03-13T04:41:42;7.10;99.90
15286;DHT22;7744;52.172;10.668;2023-03-13T04:44:08;7.10;1.00
15286;DHT22;7744;52.172;10.668;2023-03-13T04:46:33;7.10;1.00
15286;DHT22;7744;52.172;10.668;2023-03-13T04:48:59;7.30;99.90
15286;DHT22;7744;52.172;10.668;2023-03-13T04:51:24;7.30;1.00
15286;DHT22;7744;52.172;10.668;2023-03-13T04:53:50;7.30;1.00
15286;DHT22;7744;52.172;10.668;2023-03-13T04:56:24;7.30;1.00
15286;DHT22;7744;52.172;10.668;2023-03-13T04:58:50;7.30;99.90
15286;DHT22;7744;52.172;10.668;2023-03-13T05:01:15;7.40;99.90
15286;DHT22;7744;52.172;10.668;2023-03-13T05:03:41;7.30;99.90
15286;DHT22;7744;52.172;10.668;2023-03-13T05:06:07;7.30;99.90
15286;DHT22;7744;52.172;10.668;2023-03-13T05:08:32;7.20;1.00
15286;DHT22;7744;52.172;10.668;2023-03-13T05:10:58;7.20;1.00
15286;DHT22;7744;52.172;10.668;2023-03-13T05:13:24;7.30;1.00
15286;DHT22;7744;52.172;10.668;2023-03-13T05:15:49;7.20;99.90
15286;DHT22;7744;52.172;10.668;2023-03-13T05:18:15;7.10;1.00
15286;DHT22;7744;52.172;10.668;2023-03-13T05:20:40;7.10;1.00
15286;DHT22;7744;52.172;10.668;2023-03-13T05:23:06;7.00;1.00
15286;DHT22;7744;52.172;10.668;2023-03-13T05:25:31;7.10;99.90
15286;DHT22;7744;52.172;10.668;2023-03-13T05:27:57;7.10;1.00
15286;DHT22;7744;52.172;10.668;2023-03-13T05:30:23;7.20;1.00
15286;DHT22;7744;52.172;10.668;2023-03-13T05:32:48;7.30;99.90
15286;DHT22;7744;52.172;10.668;2023-03-13T05:35:14;7.20;57.20
15286;DHT22;7744;52.172;10.668;2023-03-13T05:37:39;7.30;1.00
15286;DHT22;7744;52.172;10.668;2023-03-13T05:40:05;7.50;1.00
15286;DHT22;7744;52.172;10.668;2023-03-13T05:42:31;7.60;99.90
15286;DHT22;7744;52.172;10.668;2023-03-13T05:44:57;7.70;99.90
15286;DHT22;7744;52.172;10.668;2023-03-13T05:47:22;7.60;99.90
15286;DHT22;7744;52.172;10.668;2023-03-13T05:49:48;7.70;1.00
15286;DHT22;7744;52.172;10.668;2023-03-13T05:52:13;7.80;99.90
15286;DHT22;7744;52.172;10.668;2023-03-13T05:54:39;7.80;99.90
15286;DHT22;7744;52.172;10.668;2023-03-13T05:57:05;7.80;99.90
15286;DHT22;7744;52.172;10.668;2023-03-13T05:59:30;7.80;1.00
15286;DHT22;7744;52.172;10.668;2023-03-13T06:01:56;7.80;99.90
15286;DHT22;7744;52.172;10.668;2023-03-13T06:04:22;7.80;73.50
15286;DHT22;7744;52.172;10.668;2023-03-13T06:06:47;7.90;99.90
15286;DHT22;7744;52.172;10.668;2023-03-13T06:09:13;7.80;99.90
15286;DHT22;7744;52.172;10.668;2023-03-13T06:11:38;7.90;1.00
15286;DHT22;7744;52.172;10.668;2023-03-13T06:14:04;7.90;99.90
15286;DHT22;7744;52.172;10.668;2023-03-13T06:16:29;7.90;99.90
15286;DHT22;7744;52.172;10.668;2023-03-13T06:18:55;8.40;1.00
15286;DHT22;7744;52.172;10.668;2023-03-13T06:21:21;8.10;99.90
15286;DHT22;7744;52.172;10.668;2023-03-13T06:23:47;8.10;1.00
15286;DHT22;7744;52.172;10.668;2023-03-13T06:26:12;8.10;99.90
15286;DHT22;7744;52.172;10.668;2023-03-13T06:28:38;8.20;99.90
15286;DHT22;7744;52.172;10.668;2023-03-13T06:31:05;8.40;1.00
15286;DHT22;7744;52.172;10.668;2023-03-13T06:33:31;8.50;99.90
15286;DHT22;7744;52.172;10.668;2023-03-13T06:35:59;8.60;1.00
15286;DHT22;7744;52.172;10.668;2023-03-13T06:38:25;8.80;1.00
15286;DHT22;7744;52.172;10.668;2023-03-13T06:40:51;8.80;1.00
15286;DHT22;7744;52.172;10.668;2023-03-13T06:43:16;8.80;1.00
15286;DHT22;7744;52.172;10.668;2023-03-13T06:45:42;9.00;1.00
15286;DHT22;7744;52.172;10.668;2023-03-13T06:48:07;8.90;1.00
15286;DHT22;7744;52.172;10.668;2023-03-13T06:50:37;8.80;1.00
15286;DHT22;7744;52.172;10.668;2023-03-13T06:53:03;8.70;1.00
15286;DHT22;7744;52.172;10.668;2023-03-13T06:55:28;8.70;1.00
15286;DHT22;7744;52.172;10.668;2023-03-13T06:57:54;8.90;1.00
15286;DHT22;7744;52.172;10.668;2023-03-13T07:00:20;9.00;1.00
15286;DHT22;7744;52.172;10.668;2023-03-13T07:02:45;9.00;1.00
15286;DHT22;7744;52.172;10.668;2023-03-13T07:05:11;9.00;1.00
15286;DHT22;7744;52.172;10.668;2023-03-13T07:07:39;9.00;1.00
15286;DHT22;7744;52.172;10.668;2023-03-13T07:10:06;9.10;1.00
15286;DHT22;7744;52.172;10.668;2023-03-13T07:12:33;9.10;99.90
15286;DHT22;7744;52.172;10.668;2023-03-13T07:14:59;9.30;1.00
15286;DHT22;7744;52.172;10.668;2023-03-13T07:17:25;9.30;1.00
15286;DHT22;7744;52.172;10.668;2023-03-13T07:19:51;9.20;1.00
15286;DHT22;7744;52.172;10.668;2023-03-13T07:22:16;9.30;1.00
15286;DHT22;7744;52.172;10.668;2023-03-13T07:24:42;9.20;1.00
15286;DHT22;7744;52.172;10.668;2023-03-13T07:27:07;9.20;1.00
15286;DHT22;7744;52.172;10.668;2023-03-13T07:29:33;9.20;1.00
15286;DHT22;7744;52.172;10.668;2023-03-13T07:31:59;9.20;1.00
15286;DHT22;7744;52.172;10.668;2023-03-13T07:34:24;9.30;1.00
15286;DHT22;7744;52.172;10.668;2023-03-13T07:36:50;9.30;1.00
15286;DHT22;7744;52.172;10.668;2023-03-13T07:39:16;9.40;1.00
15286;DHT22;7744;52.172;10.668;2023-03-13T07:41:41;9.40;1.00
15286;DHT22;7744;52.172;10.668;2023-03-13T07:44:07;9.30;1.00
15286;DHT22;7744;52.172;10.668;2023-03-13T07:46:33;9.50;1.00
15286;DHT22;7744;52.172;10.668;2023-03-13T07:48:58;9.60;99.90
15286;DHT22;7744;52.172;10.668;2023-03-13T07:51:25;9.60;1.00
15286;DHT22;7744;52.172;10.668;2023-03-13T07:53:51;9.60;1.00
15286;DHT22;7744;52.172;10.668;2023-03-13T07:56:20;9.60;1.00
15286;DHT22;7744;52.172;10.668;2023-03-13T07:58:46;9.60;1.00
15286;DHT22;7744;52.172;10.668;2023-03-13T08:01:26;9.70;1.00
15286;DHT22;7744;52.172;10.668;2023-03-13T08:03:53;10.00;1.00
15286;DHT22;7744;52.172;10.668;2023-03-13T08:06:22;10.00;1.00
15286;DHT22;7744;52.172;10.668;2023-03-13T08:08:48;9.90;99.90
15286;DHT22;7744;52.172;10.668;2023-03-13T08:11:16;10.00;99.90
15286;DHT22;7744;52.172;10.668;2023-03-13T08:13:42;10.00;1.00
15286;DHT22;7744;52.172;10.668;2023-03-13T08:16:12;9.90;1.00
15286;DHT22;7744;52.172;10.668;2023-03-13T08:18:40;10.00;1.00
15286;DHT22;7744;52.172;10.668;2023-03-13T08:21:08;10.00;1.00
15286;DHT22;7744;52.172;10.668;2023-03-13T08:23:35;10.00;99.90
15286;DHT22;7744;52.172;10.668;2023-03-13T08:26:09;10.10;1.00
15286;DHT22;7744;52.172;10.668;2023-03-13T08:28:36;10.20;99.90
15286;DHT22;7744;52.172;10.668;2023-03-13T08:31:13;10.20;99.90
15286;DHT22;7744;52.172;10.668;2023-03-13T08:33:40;10.20;99.90
15286;DHT22;7744;52.172;10.668;2023-03-13T08:36:21;10.30;99.90
15286;DHT22;7744;52.172;10.668;2023-03-13T08:38:49;10.50;99.90
15286;DHT22;7744;52.172;10.668;2023-03-13T08:41:18;10.50;99.90
15286;DHT22;7744;52.172;10.668;2023-03-13T08:43:44;10.60;99.90
15286;DHT22;7744;52.172;10.668;2023-03-13T08:46:09;10.50;99.90
15286;DHT22;7744;52.172;10.668;2023-03-13T08:48:35;10.60;99.90
15286;DHT22;7744;52.172;10.668;2023-03-13T08:51:09;10.60;99.90
15286;DHT22;7744;52.172;10.668;2023-03-13T08:53:36;10.60;99.90
15286;DHT22;7744;52.172;10.668;2023-03-13T08:56:02;10.60;99.90
15286;DHT22;7744;52.172;10.668;2023-03-13T08:58:29;10.30;99.90
15286;DHT22;7744;52.172;10.668;2023-03-13T09:01:04;10.70;99.90
15286;DHT22;7744;52.172;10.668;2023-03-13T09:03:31;10.70;1.00
15286;DHT22;7744;52.172;10.668;2023-03-13T09:05:57;10.70;99.90
15286;DHT22;7744;52.172;10.668;2023-03-13T09:08:23;10.90;99.90
15286;DHT22;7744;52.172;10.668;2023-03-13T09:10:55;10.90;99.90
15286;DHT22;7744;52.172;10.668;2023-03-13T09:13:22;10.30;99.90
15286;DHT22;7744;52.172;10.668;2023-03-13T09:15:59;10.90;99.90
15286;DHT22;7744;52.172;10.668;2023-03-13T09:18:25;11.00;99.90
15286;DHT22;7744;52.172;10.668;2023-03-13T09:20:51;11.10;99.90
15286;DHT22;7744;52.172;10.668;2023-03-13T09:23:18;11.10;99.90
15286;DHT22;7744;52.172;10.668;2023-03-13T09:25:44;11.00;99.90
15286;DHT22;7744;52.172;10.668;2023-03-13T09:28:10;11.10;99.90
15286;DHT22;7744;52.172;10.668;2023-03-13T09:30:35;11.20;99.90
15286;DHT22;7744;52.172;10.668;2023-03-13T09:33:01;11.30;99.90
15286;DHT22;7744;52.172;10.668;2023-03-13T09:35:26;11.50;99.90
15286;DHT22;7744;52.172;10.668;2023-03-13T09:37:52;11.70;99.90
15286;DHT22;7744;52.172;10.668;2023-03-13T09:40:20;11.80;99.90
15286;DHT22;7744;52.172;10.668;2023-03-13T09:42:50;12.00;99.90
15286;DHT22;7744;52.172;10.668;2023-03-13T09:45:38;12.00;99.90
15286;DHT22;7744;52.172;10.668;2023-03-13T09:48:30;12.10;99.90
15286;DHT22;7744;52.172;10.668;2023-03-13T09:51:23;12.10;99.90
15286;DHT22;7744;52.172;10.668;2023-03-13T09:54:13;12.10;99.90
15286;DHT22;7744;52.172;10.668;2023-03-13T09:56:49;12.40;99.90
15286;DHT22;7744;52.172;10.668;2023-03-13T10:02:34;12.40;99.90
15286;DHT22;7744;52.172;10.668;2023-03-13T10:05:20;12.50;99.90
15286;DHT22;7744;52.172;10.668;2023-03-13T10:07:46;12.50;99.90
15286;DHT22;7744;52.172;10.668;2023-03-13T10:10:14;12.60;99.90
15286;DHT22;7744;52.172;10.668;2023-03-13T10:12:45;12.50;99.90
15286;DHT22;7744;52.172;10.668;2023-03-13T10:15:31;12.70;99.90
15286;DHT22;7744;52.172;10.668;2023-03-13T10:17:59;12.90;99.90
15286;DHT22;7744;52.172;10.668;2023-03-13T10:20:35;12.90;99.90
15286;DHT22;7744;52.172;10.668;2023-03-13T10:25:48;12.80;99.90
15286;DHT22;7744;52.172;10.668;2023-03-13T10:28:16;12.80;99.90
15286;DHT22;7744;52.172;10.668;2023-03-13T10:30:49;12.90;99.90
15286;DHT22;7744;52.172;10.668;2023-03-13T10:35:45;12.90;98.00
15286;DHT22;7744;52.172;10.668;2023-03-13T10:38:19;12.80;99.90
15286;DHT22;7744;52.172;10.668;2023-03-13T10:41:17;12.70;99.90
15286;DHT22;7744;52.172;10.668;2023-03-13T10:43:57;12.70;95.90
15286;DHT22;7744;52.172;10.668;2023-03-13T10:46:24;12.60;99.90
15286;DHT22;7744;52.172;10.668;2023-03-13T10:48:53;12.60;99.90
15286;DHT22;7744;52.172;10.668;2023-03-13T10:51:22;12.60;99.90
15286;DHT22;7744;52.172;10.668;2023-03-13T10:53:48;12.70;99.90
15286;DHT22;7744;52.172;10.668;2023-03-13T10:56:33;12.80;99.90
15286;DHT22;7744;52.172;10.668;2023-03-13T10:58:59;12.90;91.60
15286;DHT22;7744;52.172;10.668;2023-03-13T11:01:27;13.00;99.90
15286;DHT22;7744;52.172;10.668;2023-03-13T11:03:55;12.90;94.30
15286;DHT22;7744;52.172;10.668;2023-03-13T11:09:14;12.80;97.40
15286;DHT22;7744;52.172;10.668;2023-03-13T11:11:53;12.70;99.90
15286;DHT22;7744;52.172;10.668;2023-03-13T11:14:23;12.80;93.20
15286;DHT22;7744;52.172;10.668;2023-03-13T11:17:33;12.80;99.90
15286;DHT22;7744;52.172;10.668;2023-03-13T11:20:14;12.80;99.90
15286;DHT22;7744;52.172;10.668;2023-03-13T11:22:55;12.90;99.90
15286;DHT22;7744;52.172;10.668;2023-03-13T11:28:33;13.40;96.70
15286;DHT22;7744;52.172;10.668;2023-03-13T11:33:55;13.60;93.60
15286;DHT22;7744;52.172;10.668;2023-03-13T11:37:12;13.70;99.90
15286;DHT22;7744;52.172;10.668;2023-03-13T11:40:01;12.90;99.90
15286;DHT22;7744;52.172;10.668;2023-03-13T11:47:51;14.50;80.60
15286;DHT22;7744;52.172;10.668;2023-03-13T11:53:26;14.30;59.80
15286;DHT22;7744;52.172;10.668;2023-03-13T11:56:04;14.20;42.90
15286;DHT22;7744;52.172;10.668;2023-03-13T12:06:39;14.10;45.70
15286;DHT22;7744;52.172;10.668;2023-03-13T12:09:10;14.10;33.40
15286;DHT22;7744;52.172;10.668;2023-03-13T12:11:58;14.20;43.20
15286;DHT22;7744;52.172;10.668;2023-03-13T12:14:57;14.30;26.10
15286;DHT22;7744;52.172;10.668;2023-03-13T12:17:36;14.00;43.60
15286;DHT22;7744;52.172;10.668;2023-03-13T12:20:25;14.20;50.60
15286;DHT22;7744;52.172;10.668;2023-03-13T12:23:13;14.40;24.50
15286;DHT22;7744;52.172;10.668;2023-03-13T12:25:57;14.40;29.20
15286;DHT22;7744;52.172;10.668;2023-03-13T12:34:11;14.40;14.40
15286;DHT22;7744;52.172;10.668;2023-03-13T12:36:43;14.50;18.70
15286;DHT22;7744;52.172;10.668;2023-03-13T12:39:28;14.50;19.10
15286;DHT22;7744;52.172;10.668;2023-03-13T12:42:08;14.40;20.60
15286;DHT22;7744;52.172;10.668;2023-03-13T12:44:35;14.50;9.20
15286;DHT22;7744;52.172;10.668;2023-03-13T13:00:45;14.40;1.00
15286;DHT22;7744;52.172;10.668;2023-03-13T13:03:29;14.20;4.30
15286;DHT22;7744;52.172;10.668;2023-03-13T13:06:05;14.10;1.00
15286;DHT22;7744;52.172;10.668;2023-03-13T13:09:02;14.20;1.10
15286;DHT22;7744;52.172;10.668;2023-03-13T13:16:41;14.40;1.00
15286;DHT22;7744;52.172;10.668;2023-03-13T13:24:56;14.20;1.00
15286;DHT22;7744;52.172;10.668;2023-03-13T13:30:34;14.60;1.00
15286;DHT22;7744;52.172;10.668;2023-03-13T13:38:34;14.50;1.00
15286;DHT22;7744;52.172;10.668;2023-03-13T13:43:46;14.60;1.00
15286;DHT22;7744;52.172;10.668;2023-03-13T13:46:24;14.60;1.00
15286;DHT22;7744;52.172;10.668;2023-03-13T13:51:33;14.70;1.00
15286;DHT22;7744;52.172;10.668;2023-03-13T13:54:01;14.80;1.00
15286;DHT22;7744;52.172;10.668;2023-03-13T13:59:01;14.80;1.00
15286;DHT22;7744;52.172;10.668;2023-03-13T14:01:28;15.00;1.00
15286;DHT22;7744;52.172;10.668;2023-03-13T14:04:02;15.00;1.00
15286;DHT22;7744;52.172;10.668;2023-03-13T14:06:33;15.10;1.00
15286;DHT22;7744;52.172;10.668;2023-03-13T14:11:58;15.00;1.00
15286;DHT22;7744;52.172;10.668;2023-03-13T14:14:23;15.10;1.00
15286;DHT22;7744;52.172;10.668;2023-03-13T14:16:54;15.10;1.00
15286;DHT22;7744;52.172;10.668;2023-03-13T14:19:26;15.00;1.00
15286;DHT22;7744;52.172;10.668;2023-03-13T14:22:05;15.00;1.00
15286;DHT22;7744;52.172;10.668;2023-03-13T14:24:32;15.10;1.00
15286;DHT22;7744;52.172;10.668;2023-03-13T14:26:58;15.10;1.00
15286;DHT22;7744;52.172;10.668;2023-03-13T14:29:24;15.10;1.00
15286;DHT22;7744;52.172;10.668;2023-03-13T14:31:57;14.90;1.00
15286;DHT22;7744;52.172;10.668;2023-03-13T14:34:24;14.90;1.00
15286;DHT22;7744;52.172;10.668;2023-03-13T14:36:53;14.90;1.00
15286;DHT22;7744;52.172;10.668;2023-03-13T14:39:35;14.90;1.00
15286;DHT22;7744;52.172;10.668;2023-03-13T14:42:13;15.30;1.00
15286;DHT22;7744;52.172;10.668;2023-03-13T14:44:39;14.80;1.00
15286;DHT22;7744;52.172;10.668;2023-03-13T14:49:44;15.10;1.00
15286;DHT22;7744;52.172;10.668;2023-03-13T14:52:24;15.10;1.00
15286;DHT22;7744;52.172;10.668;2023-03-13T14:54:54;14.20;1.00
15286;DHT22;7744;52.172;10.668;2023-03-13T14:57:23;14.90;1.00
15286;DHT22;7744;52.172;10.668;2023-03-13T14:59:50;14.80;1.00
15286;DHT22;7744;52.172;10.668;2023-03-13T15:02:28;14.70;1.00
15286;DHT22;7744;52.172;10.668;2023-03-13T15:05:03;14.70;1.00
15286;DHT22;7744;52.172;10.668;2023-03-13T15:07:44;14.60;1.00
15286;DHT22;7744;52.172;10.668;2023-03-13T15:10:24;14.50;1.00
15286;DHT22;7744;52.172;10.668;2023-03-13T15:12:51;14.50;1.00
15286;DHT22;7744;52.172;10.668;2023-03-13T15:15:16;14.50;1.00
15286;DHT22;7744;52.172;10.668;2023-03-13T15:17:42;14.70;1.00
15286;DHT22;7744;52.172;10.668;2023-03-13T15:20:12;14.80;1.00
15286;DHT22;7744;52.172;10.668;2023-03-13T15:22:40;15.20;1.00
15286;DHT22;7744;52.172;10.668;2023-03-13T15:25:26;14.70;1.00
15286;DHT22;7744;52.172;10.668;2023-03-13T15:27:52;15.40;1.00
15286;DHT22;7744;52.172;10.668;2023-03-13T15:30:20;14.80;1.00
15286;DHT22;7744;52.172;10.668;2023-03-13T15:32:48;14.50;1.00
15286;DHT22;7744;52.172;10.668;2023-03-13T16:06:20;14.00;1.00
15286;DHT22;7744;52.172;10.668;2023-03-13T16:08:52;14.20;1.00
15286;DHT22;7744;52.172;10.668;2023-03-13T16:11:18;13.90;1.00
15286;DHT22;7744;52.172;10.668;2023-03-13T16:13:43;14.00;1.00
15286;DHT22;7744;52.172;10.668;2023-03-13T16:16:29;13.80;1.00
15286;DHT22;7744;52.172;10.668;2023-03-13T16:18:56;13.90;1.00
15286;DHT22;7744;52.172;10.668;2023-03-13T16:21:28;13.90;1.00
15286;DHT22;7744;52.172;10.668;2023-03-13T16:23:54;13.90;1.00
15286;DHT22;7744;52.172;10.668;2023-03-13T16:26:28;13.80;1.00
15286;DHT22;7744;52.172;10.668;2023-03-13T16:28:54;13.80;1.00
15286;DHT22;7744;52.172;10.668;2023-03-13T16:31:28;13.70;1.00
15286;DHT22;7744;52.172;10.668;2023-03-13T16:33:55;13.70;1.00
15286;DHT22;7744;52.172;10.668;2023-03-13T16:36:26;13.80;1.00
15286;DHT22;7744;52.172;10.668;2023-03-13T16:38:53;13.70;1.00
15286;DHT22;7744;52.172;10.668;2023-03-13T16:41:23;13.60;3.80
15286;DHT22;7744;52.172;10.668;2023-03-13T16:43:49;13.50;3.50
15286;DHT22;7744;52.172;10.668;2023-03-13T16:46:16;13.60;1.00
15286;DHT22;7744;52.172;10.668;2023-03-13T16:48:42;13.60;1.00
15286;DHT22;7744;52.172;10.668;2023-03-13T16:51:20;13.60;1.00
15286;DHT22;7744;52.172;10.668;2023-03-13T16:53:47;13.50;4.80
15286;DHT22;7744;52.172;10.668;2023-03-13T16:56:34;13.50;1.00
15286;DHT22;7744;52.172;10.668;2023-03-13T16:59:05;13.70;1.00
15286;DHT22;7744;52.172;10.668;2023-03-13T17:01:31;13.40;1.00
15286;DHT22;7744;52.172;10.668;2023-03-13T17:03:58;13.40;9.70
15286;DHT22;7744;52.172;10.668;2023-03-13T17:06:30;13.40;17.90
15286;DHT22;7744;52.172;10.668;2023-03-13T17:08:56;13.40;35.60
15286;DHT22;7744;52.172;10.668;2023-03-13T17:11:23;13.30;31.20
15286;DHT22;7744;52.172;10.668;2023-03-13T17:13:50;13.40;39.90
15286;DHT22;7744;52.172;10.668;2023-03-13T17:16:25;13.40;38.70
15286;DHT22;7744;52.172;10.668;2023-03-13T17:18:54;13.30;41.60
15286;DHT22;7744;52.172;10.668;2023-03-13T17:21:22;13.30;40.10
15286;DHT22;7744;52.172;10.668;2023-03-13T17:23:48;13.30;42.20
15286;DHT22;7744;52.172;10.668;2023-03-13T17:26:23;13.10;42.60
15286;DHT22;7744;52.172;10.668;2023-03-13T17:28:54;13.10;43.20
15286;DHT22;7744;52.172;10.668;2023-03-13T17:31:21;13.00;99.90
15286;DHT22;7744;52.172;10.668;2023-03-13T17:33:48;13.10;51.40
15286;DHT22;7744;52.172;10.668;2023-03-13T17:36:16;13.00;52.10
15286;DHT22;7744;52.172;10.668;2023-03-13T17:38:42;12.90;58.90
15286;DHT22;7744;52.172;10.668;2023-03-13T17:41:19;12.90;51.50
15286;DHT22;7744;52.172;10.668;2023-03-13T17:43:45;12.90;54.50
15286;DHT22;7744;52.172;10.668;2023-03-13T17:46:15;12.80;61.60
15286;DHT22;7744;52.172;10.668;2023-03-13T17:48:41;12.80;54.10
15286;DHT22;7744;52.172;10.668;2023-03-13T17:51:14;12.70;60.60
15286;DHT22;7744;52.172;10.668;2023-03-13T17:53:40;12.70;58.80
15286;DHT22;7744;52.172;10.668;2023-03-13T17:56:18;12.80;48.30
15286;DHT22;7744;52.172;10.668;2023-03-13T17:58:44;12.90;42.40
15286;DHT22;7744;52.172;10.668;2023-03-13T18:01:12;12.90;46.80
15286;DHT22;7744;52.172;10.668;2023-03-13T18:03:39;12.70;47.70
15286;DHT22;7744;52.172;10.668;2023-03-13T18:08:40;12.90;42.60